Terminal Aerodrome Forecast
Issued by NWS Shreveport, LA

Home | Current Version | Previous Version | Text Only | Print | Product List | Glossary On
Versions: 1 2 3 4 5 6 7 8 9 10 11 12 13 14 15 16 17 18
000
FTUS44 KSHV 261200 AAA
TAFLFK
TAF AMD
KLFK 261256Z 2613/2712 13008KT P6SM BKN025 OVC045
     FM261800 14010KT P6SM OVC014
     FM270000 14008KT 4SM -RA BR OVC008
      TEMPO 2708/2712 1 1/2SM -TSRA BKN004 OVC014CB=

USA.gov is the U.S. government's official web portal to all federal, state and local government web resources and services.